Time;durP1;ratioP1;P1;durP2;ratioP2;P2;SDS_P1;SDS_P2;PMS_P1;PMS_P2;Temp;Humidity;BMP_temperature;BMP_pressure;BME280_temperature;BME280_humidity;BME280_pressure;Samples;Min_cycle;Max_cycle;Signal;HPM_P1;HPM_P2
2022/04/20 00:01:47;;;;;;;3.50;2.10;;;;;;;7.81;67.47;99526.22;5048318;28;20045;-41
2022/04/20 00:04:13;;;;;;;4.72;2.33;;;;;;;7.71;67.50;99509.22;5049340;28;20076;-41
2022/04/20 00:06:39;;;;;;;3.97;2.25;;;;;;;7.77;67.39;99520.28;5048056;28;20037;-42
2022/04/20 00:09:05;;;;;;;4.43;2.15;;;;;;;7.78;66.94;99523.72;5049695;28;20052;-41
2022/04/20 00:11:31;;;;;;;5.38;2.30;;;;;;;7.76;67.05;99528.06;5048845;28;20101;-41
2022/04/20 00:13:57;;;;;;;4.53;2.20;;;;;;;7.65;67.18;99513.69;5049810;28;20049;-41
2022/04/20 00:16:22;;;;;;;4.82;2.42;;;;;;;7.69;66.92;99530.00;5051060;28;20051;-40
2022/04/20 00:18:50;;;;;;;5.63;2.40;;;;;;;7.65;66.59;99533.50;5050916;28;20047;-41
2022/04/20 00:21:16;;;;;;;4.07;2.28;;;;;;;7.63;66.62;99540.50;5059755;28;20074;-40
2022/04/20 00:23:41;;;;;;;4.75;2.65;;;;;;;7.58;66.62;99547.50;5068896;28;20127;-42
2022/04/20 00:26:07;;;;;;;6.78;2.55;;;;;;;7.52;66.39;99550.25;5052680;28;20049;-41
2022/04/20 00:28:33;;;;;;;7.88;2.95;;;;;;;7.47;66.71;99555.53;5049285;28;20045;-41
2022/04/20 00:30:59;;;;;;;7.93;2.58;;;;;;;7.43;66.30;99553.88;5056511;28;20045;-41
2022/04/20 00:33:25;;;;;;;5.07;2.70;;;;;;;7.41;66.69;99553.09;5064316;28;20052;-43
2022/04/20 00:35:51;;;;;;;9.73;2.90;;;;;;;7.40;66.63;99555.69;5037567;28;20512;-42
2022/04/20 00:38:17;;;;;;;3.97;2.50;;;;;;;7.30;66.61;99538.69;5062457;28;20036;-42
2022/04/20 00:40:52;;;;;;;4.90;2.50;;;;;;;7.33;67.03;99547.22;5078907;28;20064;-41
2022/04/20 00:43:18;;;;;;;5.35;2.90;;;;;;;7.17;66.81;99538.16;5060508;28;20071;-41
2022/04/20 00:45:44;;;;;;;4.95;2.60;;;;;;;7.28;67.03;99546.47;5051610;28;20061;-41
2022/04/20 00:48:12;;;;;;;3.42;2.50;;;;;;;7.24;66.66;99550.88;5049022;28;20127;-42
2022/04/20 00:50:42;;;;;;;5.40;2.40;;;;;;;7.04;66.68;99519.47;5047626;28;20071;-40
2022/04/20 00:53:08;;;;;;;4.53;2.53;;;;;;;7.18;66.89;99542.41;5055024;28;20059;-41
2022/04/20 00:55:34;;;;;;;3.42;2.20;;;;;;;7.18;67.11;99532.94;5062243;28;20040;-41
2022/04/20 00:58:04;;;;;;;;;;;;;;;7.18;67.04;99537.25;5057155;28;20045;-40
2022/04/20 01:00:32;;;;;;;5.07;2.40;;;;;;;7.14;67.00;99535.63;5053888;28;19923;-40
2022/04/20 01:02:59;;;;;;;5.35;2.15;;;;;;;7.11;66.56;99538.28;5030764;28;20080;-41
2022/04/20 01:05:31;;;;;;;6.15;2.65;;;;;;;7.08;66.49;99544.38;5047338;28;20051;-40
2022/04/20 01:08:18;;;;;;;3.63;2.30;;;;;;;7.02;66.78;99544.50;5048650;28;20100;-41
2022/04/20 01:11:22;;;;;;;3.30;1.95;;;;;;;6.96;66.83;99539.47;5047199;28;20576;-43
2022/04/20 01:14:11;;;;;;;4.30;2.22;;;;;;;6.95;67.00;99540.38;5048202;28;20098;-40
2022/04/20 01:16:56;;;;;;;4.65;2.30;;;;;;;6.94;66.79;99541.25;5046330;28;20392;-40
2022/04/20 01:19:48;;;;;;;5.13;2.55;;;;;;;6.92;66.59;99547.31;5049357;28;20084;-41
2022/04/20 01:22:31;;;;;;;6.10;2.42;;;;;;;6.82;66.25;99534.59;5080585;28;20067;-41
2022/04/20 01:25:17;;;;;;;6.68;2.55;;;;;;;6.86;66.35;99548.28;5066085;28;20142;-41
2022/04/20 01:28:01;;;;;;;4.60;2.42;;;;;;;6.80;66.71;99546.69;5041882;28;20136;-41
2022/04/20 01:30:54;;;;;;;6.70;2.30;;;;;;;6.79;66.45;99546.75;5048150;28;20044;-39
2022/04/20 01:33:34;;;;;;;4.57;2.60;;;;;;;6.76;66.64;99549.38;5065174;28;20181;-41
2022/04/20 01:35:59;;;;;;;3.70;2.22;;;;;;;6.75;66.54;99552.88;5060574;28;20135;-42
2022/04/20 01:38:27;;;;;;;6.45;2.30;;;;;;;6.63;66.52;99543.63;5053980;28;20512;-40
2022/04/20 01:40:53;;;;;;;4.00;2.00;;;;;;;6.72;66.68;99556.34;5046390;28;20049;-41
2022/04/20 01:43:18;;;;;;;3.95;2.40;;;;;;;6.70;66.31;99555.50;5060787;28;20397;-41
2022/04/20 01:46:01;;;;;;;3.53;2.20;;;;;;;6.72;66.43;99558.06;5026718;28;20041;-41
2022/04/20 01:49:02;;;;;;;6.60;2.60;;;;;;;6.71;65.99;99554.63;5085307;28;20054;-41
2022/04/20 01:51:52;;;;;;;4.03;2.55;;;;;;;6.60;65.99;99532.50;5048216;28;20138;-41
2022/04/20 01:54:44;;;;;;;5.20;2.35;;;;;;;6.72;65.65;99558.06;5068470;28;20048;-42
2022/04/20 01:57:23;;;;;;;4.47;2.17;;;;;;;6.70;64.93;99547.78;5072382;28;20051;-41
2022/04/20 02:00:18;;;;;;;6.43;2.50;;;;;;;6.65;64.75;99541.84;4980226;28;20149;-40
2022/04/20 02:02:55;;;;;;;5.82;1.98;;;;;;;6.63;65.09;99545.38;5082174;28;20428;-42
2022/04/20 02:05:24;;;;;;;;;;;;;;;6.61;64.94;99537.63;5067074;28;20566;-41
2022/04/20 02:08:19;;;;;;;4.53;2.08;;;;;;;6.59;64.70;99534.25;5053400;28;20552;-41
2022/04/20 02:11:03;;;;;;;4.75;2.45;;;;;;;6.58;64.41;99537.72;5072085;28;20060;-43
2022/04/20 02:13:29;;;;;;;6.45;2.45;;;;;;;6.57;64.45;99545.47;5012419;28;20040;-39
2022/04/20 02:16:00;;;;;;;;;;;;;;;6.56;63.91;99536.88;5074125;28;20054;-41
2022/04/20 02:18:28;;;;;;;6.72;2.20;;;;;;;6.53;64.21;99536.09;5069308;28;20019;-41
2022/04/20 02:21:12;;;;;;;7.45;2.20;;;;;;;6.49;64.00;99537.88;5070302;28;20036;-42
2022/04/20 02:23:38;;;;;;;3.15;1.90;;;;;;;6.47;64.01;99539.66;5057560;28;20053;-44
2022/04/20 02:26:04;;;;;;;5.40;2.30;;;;;;;6.42;63.35;99525.13;5051377;28;20047;-41
2022/04/20 02:28:30;;;;;;;4.35;2.00;;;;;;;6.48;63.10;99533.63;5051576;28;20432;-40
2022/04/20 02:30:58;;;;;;;3.72;1.90;;;;;;;6.49;62.77;99540.47;5033584;28;20906;-42
2022/04/20 02:33:23;;;;;;;3.30;1.70;;;;;;;6.49;62.27;99537.88;5053117;28;20048;-41
2022/04/20 02:35:49;;;;;;;4.70;1.92;;;;;;;6.50;62.57;99530.97;5052133;28;20053;-41
2022/04/20 02:38:15;;;;;;;4.60;2.00;;;;;;;6.50;61.46;99536.16;5050923;28;20043;-42
2022/04/20 02:40:45;;;;;;;3.92;2.10;;;;;;;6.45;61.21;99522.47;5062559;28;20543;-42
2022/04/20 02:43:11;;;;;;;3.83;2.00;;;;;;;6.53;61.14;99529.22;5057396;28;20500;-40
2022/04/20 02:45:37;;;;;;;3.20;2.00;;;;;;;6.55;60.70;99526.56;5066831;28;20059;-41
2022/04/20 02:48:03;;;;;;;5.93;1.92;;;;;;;6.57;59.61;99527.41;5056146;28;20037;-41
2022/04/20 02:50:29;;;;;;;3.42;1.90;;;;;;;6.48;59.04;99489.72;5066475;28;20045;-39
2022/04/20 02:52:57;;;;;;;2.47;1.58;;;;;;;6.64;58.20;99527.25;5050814;28;20040;-41
2022/04/20 02:55:24;;;;;;;20.80;2.17;;;;;;;6.68;57.48;99526.31;5049877;28;20048;-42
2022/04/20 02:57:50;;;;;;;21.35;2.72;;;;;;;6.71;56.44;99509.88;5053195;28;20064;-42
2022/04/20 03:00:17;;;;;;;6.20;1.70;;;;;;;6.85;56.08;99530.25;5047839;28;20465;-41
2022/04/20 03:02:52;;;;;;;7.05;1.40;;;;;;;6.86;55.65;99522.44;5049274;28;20063;-41
2022/04/20 03:05:17;;;;;;;5.40;1.65;;;;;;;6.89;55.44;99529.31;5049440;28;20520;-41
2022/04/20 03:07:45;;;;;;;4.55;1.80;;;;;;;6.89;55.33;99531.88;5049342;28;20083;-42
2022/04/20 03:10:11;;;;;;;2.90;1.65;;;;;;;6.91;55.02;99524.97;5049730;28;20048;-42
2022/04/20 03:12:41;;;;;;;5.38;1.90;;;;;;;6.94;54.82;99535.22;5049317;28;20091;-41
2022/04/20 03:15:07;;;;;;;3.60;1.60;;;;;;;6.94;54.88;99533.50;5049719;28;20532;-43
2022/04/20 03:17:36;;;;;;;4.43;1.73;;;;;;;6.86;54.98;99513.84;5049479;28;20045;-42
2022/04/20 03:20:03;;;;;;;4.25;1.60;;;;;;;6.98;54.82;99532.53;5081581;28;20036;-41
2022/04/20 03:22:28;;;;;;;5.45;1.65;;;;;;;7.00;54.59;99530.78;5048753;28;20566;-41
2022/04/20 03:24:54;;;;;;;7.35;1.67;;;;;;;6.95;54.22;99522.28;5050349;28;20045;-42
2022/04/20 03:27:37;;;;;;;5.65;1.50;;;;;;;7.08;53.70;99539.19;5051059;28;20048;-41
2022/04/20 03:30:05;;;;;;;5.53;1.70;;;;;;;7.09;52.85;99543.47;5059619;28;20127;-41
2022/04/20 03:32:31;;;;;;;3.20;1.70;;;;;;;7.13;52.67;99550.28;5061900;28;20052;-41
2022/04/20 03:34:57;;;;;;;5.32;1.98;;;;;;;7.16;52.90;99555.41;5046630;28;20045;-42
2022/04/20 03:37:23;;;;;;;8.50;1.70;;;;;;;7.26;52.21;99556.03;5062103;28;20106;-41
2022/04/20 03:39:52;;;;;;;4.15;1.63;;;;;;;7.24;51.16;99537.09;5052850;28;20512;-42
2022/04/20 03:42:20;;;;;;;4.05;1.67;;;;;;;7.36;51.13;99539.41;5066494;28;20613;-41
2022/04/20 03:44:46;;;;;;;7.97;1.80;;;;;;;7.40;50.77;99553.13;5051947;28;20044;-40
2022/04/20 03:47:12;;;;;;;3.08;1.55;;;;;;;7.45;50.47;99556.44;5063839;28;20095;-42
2022/04/20 03:49:37;;;;;;;3.38;1.30;;;;;;;7.51;50.32;99551.13;5065589;28;20045;-43
2022/04/20 03:52:07;;;;;;;5.18;1.63;;;;;;;7.57;49.94;99559.59;5056034;28;20067;-42
2022/04/20 03:54:35;;;;;;;7.60;1.30;;;;;;;7.61;48.93;99552.59;5046552;28;20071;-42
2022/04/20 03:57:07;;;;;;;5.47;1.52;;;;;;;7.65;48.63;99546.44;5061491;28;20119;-40
2022/04/20 03:59:39;;;;;;;10.35;1.67;;;;;;;7.75;48.68;99549.66;5064576;28;20049;-40
2022/04/20 04:02:06;;;;;;;5.57;1.10;;;;;;;7.81;48.10;99540.00;5051606;28;20044;-43
2022/04/20 04:04:37;;;;;;;9.25;1.35;;;;;;;7.89;47.22;99543.28;5048504;28;20065;-43
2022/04/20 04:07:12;;;;;;;3.17;1.33;;;;;;;7.94;47.25;99536.22;5050877;28;20123;-43
2022/04/20 04:09:40;;;;;;;2.33;1.17;;;;;;;7.98;46.40;99532.66;5063561;28;20114;-41
2022/04/20 04:12:08;;;;;;;8.75;1.45;;;;;;;8.04;45.80;99540.28;5034884;28;20082;-41
2022/04/20 04:14:41;;;;;;;11.27;1.80;;;;;;;8.10;45.76;99536.69;5061681;28;20049;-42
2022/04/20 04:17:08;;;;;;;4.13;1.63;;;;;;;8.17;45.23;99543.38;5040416;28;20051;-41
2022/04/20 04:19:36;;;;;;;12.90;1.60;;;;;;;8.09;45.29;99506.50;5049892;28;20043;-41
2022/04/20 04:22:02;;;;;;;12.55;1.48;;;;;;;8.37;44.66;99533.34;5067321;28;20119;-41
2022/04/20 04:24:35;;;;;;;3.45;1.20;;;;;;;8.43;44.22;99532.31;5066116;28;20041;-41
2022/04/20 04:27:05;;;;;;;6.03;1.08;;;;;;;8.53;43.96;99538.13;5050348;28;20055;-41
2022/04/20 04:29:34;;;;;;;6.85;1.70;;;;;;;8.60;43.34;99524.94;5067893;28;20139;-42
2022/04/20 04:32:00;;;;;;;3.58;1.50;;;;;;;8.65;43.32;99529.97;5044470;28;20045;-40
2022/04/20 04:34:26;;;;;;;12.98;1.60;;;;;;;8.70;43.11;99526.38;5052926;28;20040;-42
2022/04/20 04:36:54;;;;;;;9.63;1.45;;;;;;;8.75;43.12;99521.03;5034488;28;20512;-42
2022/04/20 04:39:21;;;;;;;8.40;1.35;;;;;;;8.79;42.85;99509.72;5047358;28;20060;-43
2022/04/20 04:41:50;;;;;;;6.80;1.25;;;;;;;8.87;42.29;99508.56;5058679;28;20047;-42
2022/04/20 04:44:17;;;;;;;24.13;2.13;;;;;;;8.90;41.62;99503.28;5032504;28;20085;-42
2022/04/20 04:49:31;;;;;;;16.27;2.33;;;;;;;9.18;41.13;99510.22;5054955;28;20047;-44
2022/04/20 04:51:59;;;;;;;6.68;1.50;;;;;;;9.20;40.44;99508.44;5028793;28;20144;-42
2022/04/20 04:54:25;;;;;;;13.77;1.95;;;;;;;9.34;40.14;99514.88;5037591;28;20040;-43
2022/04/20 04:56:52;;;;;;;6.50;1.10;;;;;;;9.45;39.73;99511.09;5051868;28;20045;-44
2022/04/20 04:59:20;;;;;;;14.75;1.38;;;;;;;9.53;39.18;99522.91;5064063;28;20040;-42
2022/04/20 05:01:49;;;;;;;10.30;1.60;;;;;;;9.60;38.56;99519.22;5053382;28;20496;-44
2022/04/20 05:04:19;;;;;;;6.47;1.20;;;;;;;9.65;38.32;99519.06;5063437;28;20139;-43
2022/04/20 05:06:47;;;;;;;8.30;0.85;;;;;;;9.74;37.73;99529.13;5065215;28;20040;-43
2022/04/20 05:09:33;;;;;;;7.13;1.10;;;;;;;9.88;37.88;99526.09;5056750;28;20052;-44
2022/04/20 05:11:59;;;;;;;16.60;1.52;;;;;;;9.97;36.92;99528.38;5035072;28;20063;-41
2022/04/20 05:14:25;;;;;;;4.38;1.05;;;;;;;10.03;36.69;99528.16;5066714;28;20047;-41
2022/04/20 05:16:55;;;;;;;7.40;1.10;;;;;;;9.95;36.39;99509.38;5066693;28;20410;-42
2022/04/20 05:19:21;;;;;;;9.43;1.50;;;;;;;10.16;35.75;99539.84;5067068;28;20051;-43
2022/04/20 05:21:51;;;;;;;9.15;1.48;;;;;;;10.24;35.84;99534.38;5054480;28;20151;-43
2022/04/20 05:24:24;;;;;;;10.75;1.60;;;;;;;10.28;35.04;99536.81;5046867;28;20037;-42
2022/04/20 05:26:50;;;;;;;7.53;1.25;;;;;;;10.37;34.83;99544.28;5050791;28;20499;-42
2022/04/20 05:29:18;;;;;;;8.95;1.30;;;;;;;10.42;34.45;99547.56;5057870;28;20040;-41
2022/04/20 05:32:06;;;;;;;11.90;1.52;;;;;;;10.52;33.89;99546.31;5047524;28;20048;-40
2022/04/20 05:34:33;;;;;;;20.55;1.80;;;;;;;10.58;33.64;99553.91;5044529;28;20033;-43
2022/04/20 05:42:33;;;;;;;8.70;1.30;;;;;;;10.73;32.44;99541.25;5059397;28;20513;-41
2022/04/20 05:44:59;;;;;;;8.15;1.35;;;;;;;10.78;32.32;99541.94;5066344;28;20415;-40
2022/04/20 05:47:25;;;;;;;9.00;1.15;;;;;;;10.86;32.16;99555.50;5066794;28;20044;-42
2022/04/20 05:49:53;;;;;;;4.40;1.40;;;;;;;10.88;31.56;99551.94;5064267;28;20044;-41
2022/04/20 05:52:20;;;;;;;10.43;2.00;;;;;;;10.96;31.21;99560.28;5040412;28;20041;-42
2022/04/20 05:54:46;;;;;;;14.27;1.80;;;;;;;11.07;31.42;99548.63;5030708;28;20056;-47
2022/04/20 05:57:12;;;;;;;13.38;1.20;;;;;;;11.18;31.04;99547.31;5042942;28;20037;-44
2022/04/20 05:59:41;;;;;;;3.65;1.45;;;;;;;11.27;30.30;99562.56;5048457;28;20631;-44
2022/04/20 06:02:06;;;;;;;3.03;0.77;;;;;;;11.34;30.41;99560.56;5033847;28;20056;-41
2022/04/20 06:04:32;;;;;;;6.82;1.00;;;;;;;11.46;30.75;99555.72;5033471;28;20060;-42
2022/04/20 06:07:01;;;;;;;7.00;1.25;;;;;;;11.62;30.03;99563.75;5051489;28;20067;-42
2022/04/20 06:09:35;;;;;;;8.23;1.00;;;;;;;11.90;29.78;99566.13;5049865;28;20059;-42
2022/04/20 06:12:13;;;;;;;5.75;1.15;;;;;;;12.58;28.70;99557.94;5080755;28;20060;-43
2022/04/20 06:15:02;;;;;;;14.18;1.30;;;;;;;13.39;27.13;99551.63;5047134;28;20102;-44
2022/04/20 06:17:39;;;;;;;5.15;0.93;;;;;;;14.58;25.20;99575.25;5046401;28;20037;-44
2022/04/20 06:20:08;;;;;;;13.57;1.60;;;;;;;15.75;23.97;99572.31;5050005;28;20049;-45
2022/04/20 06:22:47;;;;;;;6.05;1.52;;;;;;;16.89;23.24;99579.44;5058063;28;20420;-43
2022/04/20 06:25:34;;;;;;;3.83;1.40;;;;;;;18.02;22.43;99572.19;5069926;28;20041;-45
2022/04/20 06:28:15;;;;;;;4.78;1.40;;;;;;;19.22;21.15;99574.38;5052584;28;20516;-44
2022/04/20 06:31:01;;;;;;;9.18;1.23;;;;;;;20.34;20.39;99567.88;5035451;28;20044;-43
2022/04/20 06:33:49;;;;;;;3.80;1.30;;;;;;;21.30;19.64;99575.22;5046955;28;20045;-44
2022/04/20 06:36:35;;;;;;;7.95;1.30;;;;;;;22.07;17.76;99583.09;5033861;28;20535;-46
2022/04/20 06:39:24;;;;;;;10.80;1.50;;;;;;;22.88;16.95;99588.47;5037695;28;20088;-44
2022/04/20 06:42:09;;;;;;;16.85;1.55;;;;;;;23.48;16.48;99587.59;5063794;28;20063;-43
2022/04/20 06:45:04;;;;;;;15.10;1.58;;;;;;;24.32;16.31;99594.09;5049078;28;20429;-44
2022/04/20 06:48:02;;;;;;;;;;;;;;;24.99;15.46;99586.94;5060062;28;20049;-49
2022/04/20 06:50:46;;;;;;;9.82;1.40;;;;;;;25.62;15.06;99593.19;5031031;28;19923;-43
2022/04/20 06:59:01;;;;;;;6.50;1.90;;;;;;;27.17;14.07;99580.88;5050764;28;20085;-41
2022/04/20 07:01:46;;;;;;;7.53;1.50;;;;;;;28.03;13.51;99585.94;5049704;28;20068;-41
2022/04/20 07:04:29;;;;;;;12.45;1.77;;;;;;;28.81;13.25;99591.59;5041722;28;20110;-43
2022/04/20 07:07:31;;;;;;;5.40;1.50;;;;;;;29.49;12.54;99567.75;5066371;28;20131;-42
2022/04/20 07:10:04;;;;;;;7.05;1.50;;;;;;;30.34;11.65;99575.69;5029630;28;20072;-43
2022/04/20 07:12:56;;;;;;;9.18;1.80;;;;;;;30.80;12.46;99577.25;5045236;28;20520;-43
2022/04/20 07:15:22;;;;;;;8.88;1.70;;;;;;;31.25;11.54;99572.72;5073393;28;20040;-42
2022/04/20 07:17:49;;;;;;;6.63;1.48;;;;;;;31.66;11.33;99563.09;5048615;28;20036;-44
2022/04/20 07:20:50;;;;;;;9.10;2.28;;;;;;;31.88;10.90;99545.94;5042461;28;20069;-46
2022/04/20 07:23:46;;;;;;;8.70;1.60;;;;;;;32.21;10.64;99559.69;5054172;28;20052;-44
2022/04/20 07:26:30;;;;;;;3.28;1.40;;;;;;;32.61;10.41;99552.72;5048361;28;20045;-45
2022/04/20 07:29:23;;;;;;;7.20;1.60;;;;;;;32.84;10.37;99554.34;5062826;28;20144;-44
2022/04/20 07:31:58;;;;;;;6.25;2.00;;;;;;;33.26;9.74;99543.41;5055875;28;20049;-45
2022/04/20 07:34:38;;;;;;;7.43;1.77;;;;;;;33.68;9.93;99544.13;5019289;28;20152;-45
2022/04/20 07:37:23;;;;;;;4.53;2.70;;;;;;;33.80;9.37;99537.13;5038178;28;20429;-42
2022/04/20 07:40:07;;;;;;;14.82;2.10;;;;;;;34.09;8.99;99546.69;5049448;28;20045;-42
2022/04/20 07:42:54;;;;;;;6.88;1.63;;;;;;;34.37;9.02;99537.38;5049118;28;20045;-45
2022/04/20 07:45:42;;;;;;;12.23;4.05;;;;;;;34.79;8.71;99546.88;5075373;28;20063;-45
2022/04/20 07:48:46;;;;;;;4.72;1.60;;;;;;;35.00;8.58;99544.94;5027379;28;20545;-47
2022/04/20 07:51:33;;;;;;;3.37;1.57;;;;;;;35.47;8.40;99531.00;5041000;28;20045;-42
2022/04/20 07:54:19;;;;;;;3.53;1.60;;;;;;;35.79;8.09;99531.88;5022104;28;20410;-45
2022/04/20 07:57:00;;;;;;;8.23;1.80;;;;;;;35.85;8.14;99528.28;5034705;28;20048;-43
2022/04/20 07:59:54;;;;;;;3.30;2.00;;;;;;;36.11;7.71;99530.75;5046572;28;20088;-44
2022/04/20 08:02:41;;;;;;;5.55;1.95;;;;;;;35.94;8.07;99524.25;5048061;28;20681;-46
2022/04/20 08:05:19;;;;;;;18.13;2.50;;;;;;;36.04;7.57;99530.00;5044227;28;20111;-45
2022/04/20 08:07:45;;;;;;;11.23;2.38;;;;;;;36.16;8.00;99515.78;5044150;28;20060;-47
2022/04/20 08:10:12;;;;;;;7.28;1.65;;;;;;;35.84;7.50;99536.63;5061460;28;20045;-45
2022/04/20 08:12:40;;;;;;;11.13;1.58;;;;;;;35.37;7.36;99529.81;5070334;28;20067;-44
2022/04/20 08:15:11;;;;;;;12.43;2.38;;;;;;;35.31;7.78;99527.97;5047525;28;20053;-43
2022/04/20 08:17:44;;;;;;;7.40;1.98;;;;;;;35.23;7.84;99529.03;5049329;28;20048;-43
2022/04/20 08:20:11;;;;;;;9.43;2.42;;;;;;;35.23;7.33;99523.63;5049008;28;20049;-51
2022/04/20 08:22:51;;;;;;;6.82;1.88;;;;;;;35.36;7.48;99520.88;5047378;28;20044;-44
2022/04/20 08:25:17;;;;;;;14.77;2.72;;;;;;;35.04;7.48;99513.72;5048563;28;20127;-43
2022/04/20 08:27:43;;;;;;;12.10;1.70;;;;;;;35.06;7.52;99508.94;5047421;28;20091;-42
2022/04/20 08:30:09;;;;;;;6.78;1.50;;;;;;;35.14;7.29;99492.47;5048726;28;20072;-43
2022/04/20 08:32:35;;;;;;;9.15;2.15;;;;;;;35.15;7.41;99526.56;5048316;28;20518;-43
2022/04/20 08:35:01;;;;;;;7.20;1.55;;;;;;;35.32;7.17;99516.97;5047240;28;20040;-42
2022/04/20 08:37:27;;;;;;;2.88;1.50;;;;;;;35.51;7.65;99517.88;5049084;28;20045;-42
2022/04/20 08:39:52;;;;;;;6.20;1.75;;;;;;;35.95;6.88;99512.38;5048483;28;20036;-43
2022/04/20 08:42:20;;;;;;;7.88;2.03;;;;;;;36.14;7.28;99516.00;5048426;28;20591;-44
2022/04/20 08:44:50;;;;;;;8.15;1.65;;;;;;;36.17;6.92;99502.00;5048477;28;20041;-43
2022/04/20 08:47:21;;;;;;;6.40;1.50;;;;;;;36.32;6.64;99510.63;5047222;28;20435;-43
2022/04/20 08:49:49;;;;;;;16.63;2.17;;;;;;;36.16;6.76;99503.06;5048212;28;20045;-42
2022/04/20 08:55:01;;;;;;;9.15;2.00;;;;;;;36.46;6.77;99508.59;5029635;28;20040;-43
2022/04/20 08:57:29;;;;;;;13.82;2.70;;;;;;;36.58;6.61;99495.16;5048204;28;20527;-43
2022/04/20 08:59:54;;;;;;;;;;;;;;;37.00;6.98;99518.66;5046784;28;20044;-44
2022/04/20 09:05:12;;;;;;;6.22;1.65;;;;;;;37.31;6.31;99491.38;5048153;28;20068;-44
2022/04/20 09:07:38;;;;;;;7.45;1.90;;;;;;;37.26;6.40;99512.94;5047027;28;20133;-44
2022/04/20 09:10:07;;;;;;;6.90;1.83;;;;;;;37.15;6.37;99508.28;5016832;28;20045;-45
2022/04/20 09:12:32;;;;;;;6.47;1.70;;;;;;;37.01;6.77;99512.16;5048128;28;20044;-44
2022/04/20 09:15:00;;;;;;;5.15;1.83;;;;;;;37.25;6.49;99492.28;5048517;28;20535;-44
2022/04/20 09:17:26;;;;;;;10.77;1.92;;;;;;;37.68;6.66;99511.09;5048488;28;20072;-42
2022/04/20 09:19:56;;;;;;;6.43;2.10;;;;;;;37.84;6.82;99496.00;5045871;28;20052;-46
2022/04/20 09:22:23;;;;;;;6.68;2.08;;;;;;;37.96;6.53;99507.69;5047107;28;20099;-42
2022/04/20 09:25:06;;;;;;;5.82;2.00;;;;;;;37.63;6.13;99505.50;5047769;28;20520;-46
2022/04/20 09:27:37;;;;;;;11.23;2.22;;;;;;;37.57;6.19;99508.34;5046098;28;20123;-41
2022/04/20 09:30:15;;;;;;;10.35;1.90;;;;;;;37.85;5.83;99513.94;5047746;28;20043;-45
2022/04/20 09:32:46;;;;;;;7.80;2.05;;;;;;;37.82;6.18;99506.25;5047786;28;20524;-44
2022/04/20 09:35:21;;;;;;;6.65;1.90;;;;;;;37.88;6.51;99508.06;5063383;28;20091;-44
2022/04/20 09:38:03;;;;;;;7.55;2.13;;;;;;;37.98;6.77;99513.72;5080196;28;20106;-43
2022/04/20 09:40:44;;;;;;;7.10;1.60;;;;;;;38.20;6.65;99518.63;5027220;28;20041;-43
2022/04/20 09:43:17;;;;;;;9.52;2.15;;;;;;;38.37;6.65;99527.69;5033512;28;20052;-43
2022/04/20 09:45:43;;;;;;;9.40;1.90;;;;;;;38.52;6.50;99518.03;5047967;28;20032;-44
2022/04/20 09:51:11;;;;;;;10.70;1.98;;;;;;;38.86;6.44;99518.22;5047835;28;20086;-46
2022/04/20 09:53:38;;;;;;;4.82;1.90;;;;;;;38.82;6.56;99517.03;5047756;28;20045;-43
2022/04/20 09:56:20;;;;;;;6.43;2.00;;;;;;;38.85;6.18;99511.94;5047715;28;20056;-42
2022/04/20 09:58:47;;;;;;;7.60;2.13;;;;;;;38.55;6.32;99511.31;5044534;28;20408;-44
2022/04/20 10:01:32;;;;;;;10.57;1.95;;;;;;;38.71;6.32;99518.72;5029971;28;20060;-44
2022/04/20 10:03:59;;;;;;;6.43;2.72;;;;;;;38.63;5.94;99508.19;5030023;28;20056;-42
2022/04/20 10:06:25;;;;;;;;;;;;;;;38.82;6.38;99506.19;5046755;28;20424;-44
2022/04/20 10:08:52;;;;;;;6.25;1.90;;;;;;;38.77;6.10;99501.47;5047118;28;19924;-43
2022/04/20 10:11:22;;;;;;;4.88;2.20;;;;;;;38.90;5.98;99495.78;5047356;28;20032;-44
2022/04/20 10:16:39;;;;;;;8.93;2.83;;;;;;;38.45;6.09;99513.78;5047215;28;20094;-45
2022/04/20 10:19:07;;;;;;;5.70;2.67;;;;;;;38.25;6.22;99505.16;5045952;28;20037;-43
2022/04/20 10:21:37;;;;;;;11.02;4.50;;;;;;;38.46;6.54;99499.16;5046215;28;20085;-44
2022/04/20 10:24:09;;;;;;;12.65;3.08;;;;;;;38.46;6.37;99505.41;5062494;28;20033;-45
2022/04/20 10:26:34;;;;;;;4.30;2.30;;;;;;;38.69;6.56;99495.56;5061971;28;20047;-42
2022/04/20 10:29:19;;;;;;;8.32;2.35;;;;;;;38.58;6.59;99518.97;5046058;28;20616;-44
2022/04/20 10:31:51;;;;;;;14.02;2.58;;;;;;;38.67;6.81;99512.13;5051223;28;20048;-43
2022/04/20 10:34:18;;;;;;;7.65;2.35;;;;;;;38.59;6.55;99507.03;5013046;28;20584;-42
2022/04/20 10:37:20;;;;;;;11.05;3.45;;;;;;;38.48;6.77;99484.25;5046202;28;20509;-43
2022/04/20 10:40:17;;;;;;;6.80;2.70;;;;;;;38.31;6.94;99494.19;5048431;28;20037;-43
2022/04/20 10:43:23;;;;;;;7.18;1.90;;;;;;;38.34;6.99;99499.13;5066693;28;20041;-44
2022/04/20 10:46:14;;;;;;;8.05;2.38;;;;;;;38.58;6.88;99496.44;5012983;28;20153;-44
2022/04/20 10:48:57;;;;;;;11.10;3.40;;;;;;;38.56;7.04;99499.38;5037393;28;20036;-45
2022/04/20 10:51:30;;;;;;;4.32;2.38;;;;;;;38.49;6.86;99485.06;5049510;28;20059;-42
2022/04/20 10:54:24;;;;;;;9.50;2.20;;;;;;;38.60;7.14;99481.53;5049403;28;20037;-43
2022/04/20 10:57:33;;;;;;;4.80;2.05;;;;;;;38.43;7.10;99484.09;5049668;28;20041;-48
2022/04/20 11:00:20;;;;;;;7.05;2.30;;;;;;;38.37;7.06;99485.06;5006205;28;20052;-45
2022/04/20 11:02:54;;;;;;;5.83;2.40;;;;;;;38.03;7.03;99480.47;5007821;28;20054;-45
2022/04/20 11:05:22;;;;;;;6.78;2.70;;;;;;;38.10;7.22;99482.03;4991817;28;20540;-45
2022/04/20 11:08:07;;;;;;;6.30;2.13;;;;;;;38.21;7.17;99479.53;4992056;28;20056;-44
2022/04/20 11:10:34;;;;;;;6.80;2.33;;;;;;;38.15;7.22;99471.28;4971947;28;20134;-44
2022/04/20 11:19:13;;;;;;;6.70;1.83;;;;;;;38.38;7.08;99478.56;5019060;28;20103;-48
2022/04/20 11:21:55;;;;;;;34.35;3.30;;;;;;;37.97;7.26;99478.66;5007973;28;20053;-44
2022/04/20 11:24:28;;;;;;;7.85;2.10;;;;;;;37.84;7.26;99465.31;4994743;28;20129;-44
2022/04/20 11:26:55;;;;;;;16.67;2.70;;;;;;;37.65;7.05;99467.28;5007408;28;20591;-47
2022/04/20 11:29:22;;;;;;;7.82;1.70;;;;;;;37.39;7.47;99452.22;4990452;28;20045;-44
2022/04/20 11:31:57;;;;;;;9.05;1.90;;;;;;;37.57;7.52;99468.47;5007378;28;20187;-46
2022/04/20 11:34:26;;;;;;;8.23;1.75;;;;;;;37.17;7.81;99467.34;5007085;28;20061;-44
2022/04/20 11:36:54;;;;;;;11.52;1.95;;;;;;;36.91;7.59;99446.81;5027938;28;20103;-46
2022/04/20 11:39:21;;;;;;;12.32;2.47;;;;;;;37.18;7.46;99453.56;5049527;28;20041;-46
2022/04/20 11:41:55;;;;;;;8.18;2.38;;;;;;;37.35;7.54;99459.16;5048309;28;20045;-44
2022/04/20 11:44:24;;;;;;;6.30;2.15;;;;;;;37.54;7.37;99452.63;5049359;28;20033;-46
2022/04/20 11:46:53;;;;;;;7.60;2.17;;;;;;;37.54;7.56;99452.63;5048302;28;20052;-44
2022/04/20 11:49:21;;;;;;;6.00;1.80;;;;;;;36.99;7.54;99453.81;5049492;28;20040;-47
2022/04/20 11:51:57;;;;;;;6.07;2.08;;;;;;;37.02;7.89;99448.75;5028443;28;20524;-43
2022/04/20 11:54:28;;;;;;;7.22;2.00;;;;;;;37.05;7.97;99429.34;5044862;28;20052;-44
2022/04/20 11:57:04;;;;;;;3.42;1.90;;;;;;;37.21;7.75;99436.84;5061411;28;20057;-43
2022/04/20 11:59:30;;;;;;;4.93;1.70;;;;;;;37.26;7.41;99434.28;5031151;28;20037;-44
2022/04/20 12:01:56;;;;;;;13.68;2.67;;;;;;;37.19;7.67;99424.56;5047982;28;20041;-44
2022/04/20 12:04:25;;;;;;;;;;;;;;;36.97;7.96;99424.22;5049118;28;20144;-44
2022/04/20 12:06:59;;;;;;;12.00;1.98;;;;;;;36.86;8.54;99423.13;5048393;28;19923;-44
2022/04/20 12:09:29;;;;;;;7.88;2.47;;;;;;;36.57;8.51;99431.19;5047840;28;20155;-44
2022/04/20 12:12:05;;;;;;;8.98;2.30;;;;;;;36.75;7.73;99415.75;5048452;28;20044;-48
2022/04/20 12:14:32;;;;;;;4.80;2.00;;;;;;;36.74;8.21;99408.69;5064161;28;20044;-48
2022/04/20 12:17:05;;;;;;;7.90;2.10;;;;;;;36.63;8.09;99408.63;5049377;28;20033;-51
2022/04/20 12:19:36;;;;;;;10.95;2.30;;;;;;;36.61;8.07;99413.41;5047853;28;20044;-45
2022/04/20 12:22:06;;;;;;;7.97;2.00;;;;;;;36.49;7.97;99410.63;5047808;28;20124;-44
2022/04/20 12:24:32;;;;;;;11.27;2.92;;;;;;;36.24;7.84;99413.44;5048046;28;20500;-45
2022/04/20 12:26:58;;;;;;;10.45;3.25;;;;;;;35.92;8.11;99390.19;5047656;28;20401;-43
2022/04/20 12:29:28;;;;;;;13.25;3.30;;;;;;;35.99;8.04;99394.50;5047615;28;20048;-43
2022/04/20 12:31:55;;;;;;;8.50;3.53;;;;;;;36.04;8.22;99400.06;5049313;28;20073;-43
2022/04/20 12:34:26;;;;;;;10.10;3.67;;;;;;;35.98;8.46;99392.00;5031220;28;20045;-43
2022/04/20 12:37:08;;;;;;;7.88;2.60;;;;;;;35.72;8.47;99376.03;5080125;28;20467;-43
2022/04/20 12:39:39;;;;;;;10.27;2.20;;;;;;;35.53;8.30;99384.09;5054343;28;20040;-45
2022/04/20 12:42:07;;;;;;;11.63;2.40;;;;;;;35.56;8.33;99389.03;5048353;28;20059;-46